Time;durP1;ratioP1;P1;durP2;ratioP2;P2;SDS_P1;SDS_P2;PMS_P1;PMS_P2;Temp;Humidity;BMP_temperature;BMP_pressure;BME280_temperature;BME280_humidity;BME280_pressure;Samples;Min_cycle;Max_cycle;Signal;HPM_P1;HPM_P2
2022/01/25 00:15:39;;;;;;;;;80.60;59.20;;;;;-8.17;89.72;101399.09;6310823;20;3646097;-42
2022/01/25 00:26:36;;;;;;;;;77.80;58.20;;;;;-7.37;89.32;101384.06;6315355;20;3646147;-42
2022/01/25 00:31:39;;;;;;;;;86.33;61.67;;;;;-7.64;88.96;101375.16;6286489;20;2909722;-42
2022/01/25 00:34:09;;;;;;;;;81.80;59.60;;;;;-7.54;88.86;101369.47;6314802;20;3644025;-42
2022/01/25 00:36:39;;;;;;;;;93.67;66.00;;;;;-7.33;88.71;101378.09;6287893;20;3663854;-41
2022/01/25 00:39:08;;;;;;;;;93.00;64.17;;;;;-7.40;88.12;101375.19;6316483;20;3671195;-41
2022/01/25 00:41:36;;;;;;;;;78.50;56.00;;;;;-7.54;88.67;101372.94;6315335;20;2502381;-43
2022/01/25 00:44:06;;;;;;;;;92.17;63.00;;;;;-7.47;88.75;101374.09;6282627;20;4429399;-42
2022/01/25 00:46:36;;;;;;;;;86.33;62.67;;;;;-7.38;88.65;101378.75;6319358;20;2908572;-41
2022/01/25 00:49:07;;;;;;;;;87.33;64.00;;;;;-7.31;88.61;101376.44;6318335;20;2912830;-42
2022/01/25 00:56:52;;;;;;;;;79.60;56.20;;;;;-7.17;88.92;101374.34;6313784;20;3626732;-42
2022/01/25 00:59:31;;;;;;;;;80.60;55.60;;;;;-7.43;89.18;101372.47;6285586;20;3639170;-41
2022/01/25 01:02:11;;;;;;;;;77.00;55.00;;;;;-7.42;89.64;101369.94;6286613;20;2887749;-41
2022/01/25 01:04:42;;;;;;;;;78.40;58.00;;;;;-7.40;89.92;101369.97;6281416;20;3634815;-41
2022/01/25 01:07:15;;;;;;;;;65.00;44.33;;;;;-7.39;89.71;101367.44;6286493;20;2892989;-44
2022/01/25 01:09:48;;;;;;;;;72.80;54.20;;;;;-7.30;89.36;101362.56;6314201;20;3636708;-42
2022/01/25 01:13:28;;;;;;;;;83.60;57.60;;;;;-7.42;89.21;101363.84;6279915;20;3655571;-41
2022/01/25 01:45:30;;;;;;;;;66.50;49.00;;;;;-7.50;91.07;101321.81;6283248;20;2877314;-42
2022/01/25 01:48:05;;;;;;;;;89.33;63.67;;;;;-7.42;90.94;101324.72;6285034;20;2901860;-41
2022/01/25 01:50:37;;;;;;;;;79.80;57.00;;;;;-7.51;90.74;101313.06;6314669;20;3637816;-44
2022/01/25 01:53:08;;;;;;;;;84.00;62.00;;;;;-7.60;91.17;101314.47;6279337;20;2883593;-41
2022/01/25 01:55:38;;;;;;;;;79.67;55.00;;;;;-7.84;91.63;101307.47;6285230;20;2895128;-43
2022/01/25 01:58:06;;;;;;;;;76.20;57.20;;;;;-7.86;92.27;101311.75;6312068;20;3640884;-41
2022/01/25 02:00:42;;;;;;;;;78.00;56.00;;;;;-7.84;92.10;101304.00;6283119;20;2873161;-41
2022/01/25 02:03:12;;;;;;;;;82.60;59.80;;;;;-7.73;92.11;101314.00;6279958;20;3641881;-41
2022/01/25 02:05:43;;;;;;;;;87.50;59.83;;;;;-7.76;91.21;101295.63;6282173;20;3666984;-41
2022/01/25 02:08:14;;;;;;;;;90.20;59.20;;;;;-7.50;91.36;101295.72;6314303;20;3655588;-42
2022/01/25 02:10:43;;;;;;;;;73.40;57.00;;;;;-7.54;90.97;101286.00;6283427;20;3622123;-41
2022/01/25 02:13:12;;;;;;;;;79.40;55.40;;;;;-7.57;91.40;101270.25;6282355;20;3655467;-42
2022/01/25 02:15:45;;;;;;;;;77.00;58.00;;;;;-7.53;91.57;101277.34;6283462;20;2880459;-45
2022/01/25 02:23:42;;;;;;;;;83.00;62.20;;;;;-7.33;91.68;101271.13;6280751;20;3652326;-43
2022/01/25 02:26:12;;;;;;;;;65.00;46.50;;;;;-7.39;91.51;101272.66;6279890;20;2502319;-43
2022/01/25 02:28:45;;;;;;;;;78.40;58.20;;;;;-7.60;90.53;101272.75;6281936;20;3632497;-42
2022/01/25 02:31:15;;;;;;;;;78.00;58.00;;;;;-7.78;91.02;101255.56;6278725;20;2499548;-42
2022/01/25 02:33:45;;;;;;;;;78.50;57.00;;;;;-8.03;91.36;101260.66;6277043;20;2502477;-42
2022/01/25 02:36:27;;;;;;;;;77.00;56.00;;;;;-7.34;90.79;101261.53;6285082;20;2896070;-41
2022/01/25 02:38:57;;;;;;;;;82.20;57.60;;;;;-7.45;90.71;101251.53;6283221;20;3632537;-43
2022/01/25 02:41:25;;;;;;;;;69.50;57.00;;;;;-7.54;91.35;101246.88;6284950;20;2865969;-42
2022/01/25 02:43:53;;;;;;;;;73.00;57.00;;;;;-7.55;91.84;101247.72;6274653;20;2502330;-41
2022/01/25 02:48:29;;;;;;;;;78.67;54.00;;;;;-7.90;92.14;101241.19;6280970;20;2888781;-41
2022/01/25 02:49:13;;;;;;;;;72.40;51.20;;;;;-7.95;92.62;101234.09;6313503;20;3649292;-41
2022/01/25 02:51:48;;;;;;;;;75.67;52.67;;;;;-7.83;92.86;101235.38;6281985;20;2888930;-41
2022/01/25 02:54:17;;;;;;;;;69.80;50.80;;;;;-7.46;92.03;101235.00;6311017;20;3636717;-41
2022/01/25 02:56:48;;;;;;;;;78.33;54.33;;;;;-7.81;91.55;101232.00;6278808;20;2897139;-42
2022/01/25 02:59:18;;;;;;;;;86.00;57.50;;;;;-7.98;92.08;101230.47;6315410;20;2892974;-42
2022/01/25 03:01:49;;;;;;;;;80.00;56.00;;;;;-8.24;92.74;101235.56;6282082;20;3641924;-42
2022/01/25 03:04:21;;;;;;;;;63.50;50.00;;;;;-8.10;92.96;101238.72;6277997;20;2510809;-43
2022/01/25 03:06:51;;;;;;;;;74.40;55.40;;;;;-8.06;93.26;101235.38;6283312;20;3631506;-44
2022/01/25 03:09:20;;;;;;;;;77.50;58.00;;;;;-8.12;93.25;101240.34;6282734;20;2883718;-42
2022/01/25 03:11:52;;;;;;;;;79.00;54.00;;;;;-8.11;93.38;101225.59;6282257;20;2905536;-43
2022/01/25 03:14:25;;;;;;;;;67.33;51.33;;;;;-8.09;93.65;101223.97;6315231;20;3611715;-42
2022/01/25 03:25:07;;;;;;;;;74.00;52.00;;;;;-7.74;93.00;101226.19;6277553;20;2881692;-42
2022/01/25 03:27:37;;;;;;;;;67.00;48.67;;;;;-7.57;92.86;101226.78;6281628;20;2880515;-43
2022/01/25 03:30:06;;;;;;;;;77.00;54.00;;;;;-7.75;92.50;101232.22;6311052;20;2508683;-41
2022/01/25 03:32:35;;;;;;;;;77.40;53.60;;;;;-7.80;92.36;101225.06;6280620;20;3634680;-41
2022/01/25 03:35:05;;;;;;;;;74.20;55.40;;;;;-7.74;92.41;101228.78;6281867;20;3622121;-41
2022/01/25 03:37:34;;;;;;;;;78.50;54.50;;;;;-7.83;92.60;101222.34;6281217;20;2896140;-41
2022/01/25 03:40:02;;;;;;;;;73.50;51.50;;;;;-7.86;92.71;101217.91;6277901;20;2502330;-41
2022/01/25 03:42:35;;;;;;;;;77.00;54.00;;;;;-7.87;92.94;101216.13;6279674;20;2890877;-41
2022/01/25 03:45:17;;;;;;;;;83.33;59.33;;;;;-7.81;92.76;101213.75;6280391;20;2891951;-41
2022/01/25 03:47:59;;;;;;;;;77.00;57.50;;;;;-7.66;92.40;101205.63;6311160;20;2498293;-42
2022/01/25 03:50:27;;;;;;;;;82.67;57.33;;;;;-7.49;92.04;101206.22;6278590;20;3650298;-41
2022/01/25 03:52:56;;;;;;;;;77.20;56.40;;;;;-7.79;92.23;101200.78;6307775;20;3637228;-42
2022/01/25 03:55:25;;;;;;;;;74.40;52.80;;;;;-7.67;92.34;101193.38;6278799;20;3618004;-42
2022/01/25 03:57:55;;;;;;;;;72.00;55.25;;;;;-7.77;92.38;101184.34;6281209;20;3633671;-41
2022/01/25 04:00:23;;;;;;;;;84.50;54.50;;;;;-7.80;92.42;101186.84;6308577;20;2500254;-43
2022/01/25 04:02:56;;;;;;;;;70.00;48.00;;;;;-7.91;92.93;101188.16;6278494;20;2500257;-43
2022/01/25 04:05:35;;;;;;;;;68.00;53.00;;;;;-7.95;93.32;101174.16;6279240;20;2508633;-41
2022/01/25 04:08:05;;;;;;;;;67.00;53.00;;;;;-7.87;92.91;101176.13;6277384;20;2510793;-42
2022/01/25 04:10:33;;;;;;;;;75.00;50.00;;;;;-7.81;92.94;101174.66;6278858;20;2875249;-41
2022/01/25 04:13:01;;;;;;;;;70.00;48.00;;;;;-7.67;92.68;101176.88;6280175;20;2874349;-41
2022/01/25 04:15:31;;;;;;;;;63.20;48.20;;;;;-7.70;92.41;101169.81;6281809;20;3629575;-42
2022/01/25 04:21:29;;;;;;;;;68.33;48.33;;;;;-7.78;92.23;101174.75;6281596;20;3646165;-41
2022/01/25 04:26:29;;;;;;;;;73.00;56.00;;;;;-8.44;94.02;101171.41;6309911;20;2499322;-41
2022/01/25 04:28:58;;;;;;;;;77.00;57.60;;;;;-8.29;94.46;101171.06;6278322;20;3616966;-41
2022/01/25 04:31:27;;;;;;;;;76.40;52.40;;;;;-8.38;94.27;101169.91;6281891;20;3647156;-44
2022/01/25 04:53:28;;;;;;;;;75.00;52.00;;;;;-8.53;94.47;101152.81;6276922;20;2510728;-43
2022/01/25 04:56:43;;;;;;;;;73.00;54.00;;;;;-8.61;94.07;101152.53;6278538;20;2894060;-43
2022/01/25 04:58:53;;;;;;;;;68.50;48.00;;;;;-8.72;94.37;101152.09;6274747;20;2505073;-42
2022/01/25 05:01:22;;;;;;;;;67.40;49.60;;;;;-8.93;94.44;101149.53;6278618;20;3615989;-41
2022/01/25 05:06:21;;;;;;;;;68.50;50.00;;;;;-8.72;94.14;101141.69;6285201;20;3626350;-43
2022/01/25 05:08:54;;;;;;;;;73.20;57.00;;;;;-8.94;94.61;101139.94;6314163;20;3638909;-41
2022/01/25 05:16:46;;;;;;;;;67.20;50.40;;;;;-8.92;95.29;101124.41;6283138;20;3623165;-41
2022/01/25 05:24:41;;;;;;;;;84.20;62.40;;;;;-8.77;95.33;101101.56;6277961;20;3653367;-41
2022/01/25 05:27:16;;;;;;;;;89.33;63.67;;;;;-9.16;95.77;101104.38;6286148;20;2919226;-41
2022/01/25 05:29:45;;;;;;;;;90.00;62.60;;;;;-9.22;96.29;101114.50;6314579;20;3665973;-41
2022/01/25 05:32:16;;;;;;;;;101.00;73.33;;;;;-9.22;97.29;101117.13;6285045;20;3690908;-41
2022/01/25 05:34:45;;;;;;;;;81.40;54.20;;;;;-9.32;98.04;101126.28;6314369;20;3651441;-43
2022/01/25 05:37:15;;;;;;;;;82.00;63.00;;;;;-9.00;99.37;101123.19;6285145;20;2903898;-41
2022/01/25 05:39:47;;;;;;;;;85.25;57.50;;;;;-9.12;97.79;101114.06;6317538;20;3651323;-41
2022/01/25 05:47:41;;;;;;;;;76.50;51.50;;;;;-9.05;96.77;101125.63;6283359;20;2878901;-42
2022/01/25 05:50:14;;;;;;;;;79.40;54.60;;;;;-8.99;96.68;101130.19;6282654;20;3646107;-42
2022/01/25 05:52:42;;;;;;;;;72.50;53.00;;;;;-8.97;96.54;101112.94;6281689;20;2510836;-44
2022/01/25 05:55:12;;;;;;;;;94.33;60.00;;;;;-8.86;96.82;101112.53;6277328;20;3675277;-41
2022/01/25 05:57:41;;;;;;;;;77.20;56.00;;;;;-8.75;97.15;101105.13;6314359;20;3622134;-43
2022/01/25 06:00:10;;;;;;;;;83.50;54.50;;;;;-8.67;96.98;101111.53;6281703;20;2898343;-41
2022/01/25 06:02:39;;;;;;;;;87.20;59.20;;;;;-8.92;97.39;101116.59;6283449;20;3643995;-42
2022/01/25 06:05:08;;;;;;;;;88.00;62.67;;;;;-8.41;96.34;101106.44;6280461;20;2900288;-42
2022/01/25 06:07:37;;;;;;;;;78.20;58.00;;;;;-8.51;96.20;101109.50;6310797;20;3647205;-42
2022/01/25 06:10:08;;;;;;;;;81.80;58.80;;;;;-8.62;95.68;101104.78;6283313;20;3654474;-42
2022/01/25 06:12:36;;;;;;;;;83.80;60.00;;;;;-8.82;96.01;101095.31;6278850;20;3652328;-41
2022/01/25 06:15:05;;;;;;;;;83.00;58.00;;;;;-8.99;96.23;101084.25;6276903;20;2502359;-41
2022/01/25 06:17:34;;;;;;;;;72.80;49.80;;;;;-9.03;96.83;101086.66;6278413;20;3628415;-41
2022/01/25 06:20:05;;;;;;;;;95.33;65.33;;;;;-8.86;96.75;101075.22;6282068;20;2908572;-41
2022/01/25 06:22:35;;;;;;;;;73.80;54.20;;;;;-8.70;96.66;101069.75;6311648;20;3622232;-42
2022/01/25 06:25:05;;;;;;;;;85.00;57.50;;;;;-8.56;96.20;101080.69;6282809;20;2899582;-41
2022/01/25 06:27:40;;;;;;;;;88.33;64.33;;;;;-8.42;94.54;101083.84;6282135;20;2901302;-41
2022/01/25 06:30:15;;;;;;;;;83.60;58.60;;;;;-8.49;95.21;101082.69;6313274;20;3645293;-42
2022/01/25 06:32:45;;;;;;;;;93.33;64.83;;;;;-9.41;95.67;101096.38;6280361;20;3667963;-41
2022/01/25 06:35:16;;;;;;;;;80.40;62.60;;;;;-9.22;96.18;101093.72;6310752;20;3650272;-42
2022/01/25 06:37:46;;;;;;;;;89.40;61.80;;;;;-8.46;96.00;101087.13;6282002;20;3673233;-41
2022/01/25 06:40:16;;;;;;;;;87.25;65.00;;;;;-8.08;94.03;101070.31;6280193;20;3602309;-43
2022/01/25 06:42:46;;;;;;;;;96.00;67.83;;;;;-8.20;94.63;101091.56;6280602;20;3668952;-41
2022/01/25 06:45:18;;;;;;;;;92.80;66.00;;;;;-8.23;95.34;101093.19;6309309;20;3665828;-41
2022/01/25 06:47:49;;;;;;;;;92.00;66.33;;;;;-7.97;95.63;101095.00;6283947;20;2912820;-41
2022/01/25 06:50:23;;;;;;;;;87.33;63.33;;;;;-7.51;95.14;101087.91;6316386;20;2909786;-41
2022/01/25 06:52:52;;;;;;;;;85.80;63.40;;;;;-6.98;93.14;101087.91;6310951;20;3651507;-41
2022/01/25 06:55:41;;;;;;;;;89.50;62.00;;;;;-7.26;93.56;101078.31;6280465;20;2906663;-41
2022/01/25 06:58:09;;;;;;;;;77.00;58.00;;;;;-6.87;92.83;101092.63;6313282;20;2878495;-41
2022/01/25 07:00:40;;;;;;;;;75.00;55.50;;;;;-6.73;92.22;101089.56;6283371;20;2889922;-42
2022/01/25 07:03:09;;;;;;;;;75.50;57.50;;;;;-6.67;92.19;101085.41;6284514;20;2886759;-41
2022/01/25 07:05:38;;;;;;;;;85.00;66.00;;;;;-6.61;92.10;101084.69;6279485;20;2502353;-41
2022/01/25 07:08:07;;;;;;;;;89.00;66.00;;;;;-6.54;92.13;101084.06;6283696;20;2892965;-41
2022/01/25 07:10:35;;;;;;;;;75.50;56.00;;;;;-6.39;92.20;101069.69;6283299;20;2872129;-43
2022/01/25 07:13:03;;;;;;;;;78.50;57.50;;;;;-6.33;92.23;101069.84;6280659;20;2502412;-44
2022/01/25 07:15:33;;;;;;;;;77.00;48.50;;;;;-6.26;91.82;101066.59;6281427;20;2877494;-45
2022/01/25 07:18:02;;;;;;;;;81.50;60.00;;;;;-6.23;91.92;101074.50;6284184;20;2885715;-43
2022/01/25 07:20:32;;;;;;;;;85.33;62.50;;;;;-6.24;92.53;101075.34;6282088;20;3658610;-42
2022/01/25 07:23:01;;;;;;;;;81.50;57.00;;;;;-6.08;91.56;101076.66;6310141;20;2890612;-45
2022/01/25 07:25:30;;;;;;;;;90.67;60.67;;;;;-6.06;92.17;101068.00;6282656;20;2907635;-42
2022/01/25 07:27:59;;;;;;;;;81.00;57.00;;;;;-6.27;92.22;101086.59;6311200;20;3635650;-42
2022/01/25 07:30:29;;;;;;;;;83.33;62.33;;;;;-5.98;92.01;101090.06;6283271;20;2896100;-41
2022/01/25 07:32:57;;;;;;;;;81.50;58.50;;;;;-6.06;92.26;101086.31;6309618;20;2502356;-47
2022/01/25 07:35:35;;;;;;;;;82.00;60.00;;;;;-5.85;91.70;101085.13;6278779;20;2883999;-42
2022/01/25 07:38:05;;;;;;;;;78.50;59.00;;;;;-5.90;91.61;101071.03;6282438;20;2873145;-44
2022/01/25 07:40:39;;;;;;;;;79.00;60.00;;;;;-5.70;91.21;101072.47;6282111;20;2882587;-41
2022/01/25 07:43:10;;;;;;;;;85.33;60.33;;;;;-5.72;91.41;101081.09;6283956;20;2897244;-41
2022/01/25 07:45:42;;;;;;;;;81.00;61.00;;;;;-5.54;91.11;101074.63;6310571;20;2502349;-42
2022/01/25 07:48:26;;;;;;;;;81.00;58.00;;;;;-5.87;91.36;101081.56;6278481;20;2502440;-44
2022/01/25 07:50:59;;;;;;;;;89.50;62.00;;;;;-5.67;91.61;101080.38;6283118;20;2892059;-44
2022/01/25 07:53:28;;;;;;;;;85.80;60.20;;;;;-5.48;91.19;101075.63;6281044;20;3658536;-42
2022/01/25 07:55:57;;;;;;;;;78.00;52.00;;;;;-5.59;90.80;101071.00;6281410;20;2890866;-41
2022/01/25 07:58:26;;;;;;;;;86.33;63.00;;;;;-5.26;91.25;101064.88;6279254;20;2903261;-42
2022/01/25 08:00:55;;;;;;;;;79.50;56.00;;;;;-5.36;90.28;101068.97;6315195;20;2887771;-41
2022/01/25 08:03:23;;;;;;;;;78.50;55.00;;;;;-5.35;90.17;101062.00;6277630;20;2873255;-42
2022/01/25 08:06:22;;;;;;;;;81.50;60.00;;;;;-5.41;90.38;101062.75;6278801;20;2896079;-43
2022/01/25 08:09:01;;;;;;;;;63.60;47.60;;;;;-5.16;89.84;101059.00;6280522;20;3601327;-43
2022/01/25 08:11:31;;;;;;;;;82.80;62.00;;;;;-5.43;90.18;101053.09;6276961;20;3647126;-46
2022/01/25 08:14:13;;;;;;;;;93.00;66.33;;;;;-5.18;90.12;101052.84;6281534;20;2900296;-42
2022/01/25 08:16:51;;;;;;;;;76.50;60.50;;;;;-5.05;89.50;101040.94;6304827;20;2502386;-42
2022/01/25 08:19:31;;;;;;;;;83.00;60.50;;;;;-4.99;90.01;101055.91;6276375;20;2502546;-42
2022/01/25 08:22:05;;;;;;;;;91.67;65.33;;;;;-5.10;89.52;101046.06;6280101;20;2908716;-42
2022/01/25 08:24:46;;;;;;;;;78.00;63.00;;;;;-4.94;89.25;101047.31;6307333;20;2502533;-42
2022/01/25 08:27:22;;;;;;;;;93.00;66.33;;;;;-4.81;89.47;101051.09;6280012;20;2899199;-44
2022/01/25 08:29:54;;;;;;;;;76.50;54.00;;;;;-5.04;89.73;101044.44;6310284;20;2502354;-42
2022/01/25 08:32:37;;;;;;;;;78.00;62.00;;;;;-4.89;89.45;101050.03;6279258;20;2882611;-46
2022/01/25 08:35:28;;;;;;;;;88.50;66.00;;;;;-4.70;89.09;101057.44;6275210;20;2890911;-43
2022/01/25 08:38:12;;;;;;;;;88.33;65.33;;;;;-4.84;89.06;101056.28;6282004;20;2898352;-42
2022/01/25 08:40:57;;;;;;;;;90.00;62.33;;;;;-4.86;89.69;101063.19;6313014;20;2902352;-41
2022/01/25 08:43:40;;;;;;;;;90.00;66.00;;;;;-4.63;90.02;101059.38;6314056;20;2893098;-40
2022/01/25 08:46:14;;;;;;;;;90.67;69.67;;;;;-4.55;90.50;101049.06;6281713;20;2897341;-41
2022/01/25 08:48:58;;;;;;;;;89.33;66.00;;;;;-4.44;90.36;101044.03;6313353;20;2903407;-40
2022/01/25 08:51:30;;;;;;;;;79.00;58.00;;;;;-4.47;89.44;101041.38;6309292;20;2502360;-43
2022/01/25 08:54:15;;;;;;;;;93.00;67.33;;;;;-4.38;89.63;101045.91;6281511;20;2900326;-43
2022/01/25 08:56:58;;;;;;;;;85.00;63.00;;;;;-4.27;89.64;101032.16;6310867;20;2897125;-41
2022/01/25 08:59:50;;;;;;;;;76.00;57.00;;;;;-4.03;88.92;101037.03;6279379;20;2877438;-42
2022/01/25 09:02:20;;;;;;;;;142.33;109.67;;;;;-4.04;89.49;101036.97;6283250;20;3719062;-39
2022/01/25 09:04:50;;;;;;;;;101.33;67.67;;;;;-4.02;89.40;101030.03;6280076;20;3674319;-40
2022/01/25 09:07:20;;;;;;;;;95.67;66.67;;;;;-3.83;89.24;101026.00;6314330;20;3663787;-41
2022/01/25 09:09:50;;;;;;;;;92.33;69.00;;;;;-3.68;88.20;101030.66;6313974;20;2906761;-39
2022/01/25 09:12:19;;;;;;;;;91.00;66.00;;;;;-3.61;88.41;101032.50;6311494;20;2896583;-41
2022/01/25 09:14:49;;;;;;;;;92.33;67.67;;;;;-3.52;88.02;101030.06;6315261;20;3657658;-40
2022/01/25 09:17:19;;;;;;;;;86.00;65.67;;;;;-3.37;88.00;101025.09;6313281;20;2891903;-40
2022/01/25 09:19:48;;;;;;;;;79.00;61.00;;;;;-3.66;87.71;101035.09;6315471;20;2887894;-40
2022/01/25 09:22:19;;;;;;;;;83.00;61.50;;;;;-3.35;88.24;101038.22;6312925;20;2883150;-40
2022/01/25 09:24:49;;;;;;;;;83.50;62.50;;;;;-3.33;87.92;101029.50;6284988;20;2895030;-39
2022/01/25 09:27:19;;;;;;;;;90.33;68.00;;;;;-3.34;88.23;101027.75;6285301;20;2890860;-39
2022/01/25 09:29:47;;;;;;;;;90.50;66.50;;;;;-3.29;88.41;101016.44;6313313;20;2500246;-39
2022/01/25 09:32:19;;;;;;;;;96.33;68.00;;;;;-3.06;88.12;101022.94;6285295;20;3656466;-41
2022/01/25 09:34:49;;;;;;;;;93.33;71.33;;;;;-3.04;87.74;101009.81;6316601;20;3650273;-40
2022/01/25 09:37:19;;;;;;;;;89.33;70.00;;;;;-2.81;87.48;100999.66;6315814;20;2896195;-41
2022/01/25 09:39:50;;;;;;;;;93.33;71.33;;;;;-2.70;87.10;101001.56;6318505;20;3663787;-39
2022/01/25 09:42:20;;;;;;;;;73.00;57.50;;;;;-2.73;87.62;101000.66;6316261;20;2878395;-40
2022/01/25 09:44:50;;;;;;;;;86.67;65.00;;;;;-2.84;87.36;101004.84;6283248;20;3649312;-40
2022/01/25 09:47:19;;;;;;;;;91.00;68.33;;;;;-2.82;87.56;101005.75;6314454;20;3653335;-40
2022/01/25 09:49:49;;;;;;;;;97.00;73.33;;;;;-2.89;88.07;100996.91;6313327;20;3640864;-39
2022/01/25 09:52:20;;;;;;;;;96.67;73.67;;;;;-2.62;87.90;100991.16;6315092;20;3667946;-40
2022/01/25 09:54:57;;;;;;;;;97.33;69.33;;;;;-2.49;87.51;100987.81;6314337;20;3661708;-40
2022/01/25 09:57:27;;;;;;;;;89.00;66.67;;;;;-2.24;86.81;100977.56;6281689;20;2900457;-40
2022/01/25 09:59:57;;;;;;;;;92.67;68.33;;;;;-2.13;86.73;100991.75;6315791;20;3649362;-41
2022/01/25 10:02:50;;;;;;;;;91.33;69.00;;;;;-2.37;87.68;100999.34;6314728;20;3655482;-40
2022/01/25 10:05:33;;;;;;;;;91.33;68.67;;;;;-2.17;87.33;100986.44;6312071;20;2900317;-39
2022/01/25 10:08:27;;;;;;;;;90.33;71.33;;;;;-2.07;86.03;100983.91;6317537;20;3640983;-39
2022/01/25 10:11:06;;;;;;;;;92.00;69.00;;;;;-1.71;86.26;100969.38;6315152;20;2894111;-39
2022/01/25 10:13:44;;;;;;;;;94.67;69.67;;;;;-1.64;86.28;100963.25;6314911;20;3661718;-40
2022/01/25 10:16:29;;;;;;;;;97.00;71.00;;;;;-1.75;85.97;100964.94;6314746;20;3655470;-39
2022/01/25 10:19:07;;;;;;;;;104.33;73.67;;;;;-1.58;85.92;100972.97;6314496;20;3673227;-41
2022/01/25 10:21:44;;;;;;;;;93.33;71.00;;;;;-1.60;85.64;100977.34;6314964;20;3640177;-39
2022/01/25 10:24:16;;;;;;;;;101.00;74.00;;;;;-1.26;85.23;100978.50;6315133;20;3668998;-41
2022/01/25 10:27:01;;;;;;;;;107.67;82.67;;;;;-1.41;85.25;100975.75;6312624;20;3694998;-38
2022/01/25 10:29:35;;;;;;;;;95.00;71.00;;;;;-1.57;85.54;100970.34;6282877;20;3650227;-39
2022/01/25 10:32:14;;;;;;;;;99.00;71.00;;;;;-1.11;85.44;100968.09;6315857;20;3642058;-39
2022/01/25 10:34:49;;;;;;;;;81.50;60.00;;;;;-1.12;84.64;100958.41;6315377;20;2888859;-40
2022/01/25 10:37:26;;;;;;;;;84.33;62.33;;;;;-0.95;84.03;100961.16;6281616;20;2894041;-38
2022/01/25 10:39:56;;;;;;;;;88.00;66.00;;;;;-0.70;83.56;100963.91;6317422;20;3650312;-41
2022/01/25 10:42:31;;;;;;;;;83.50;64.00;;;;;-0.52;83.33;100942.91;6315280;20;2884757;-39
2022/01/25 10:45:10;;;;;;;;;89.67;67.00;;;;;-0.46;84.41;100940.28;6282263;20;3655487;-39
2022/01/25 10:47:55;;;;;;;;;80.50;63.50;;;;;-0.53;82.75;100937.59;6318340;20;2877350;-38
2022/01/25 10:50:46;;;;;;;;;83.50;60.00;;;;;-0.46;82.73;100953.47;6286212;20;2878467;-38
2022/01/25 10:53:37;;;;;;;;;85.00;64.33;;;;;-0.26;82.59;100948.25;6283337;20;2893067;-39
2022/01/25 10:56:38;;;;;;;;;91.67;67.67;;;;;-0.17;82.31;100951.81;6316785;20;3654828;-38
2022/01/25 10:59:33;;;;;;;;;89.33;64.33;;;;;-0.28;82.00;100947.38;6316982;20;3658516;-38
2022/01/25 11:02:23;;;;;;;;;88.67;65.33;;;;;-0.25;82.84;100957.06;6317403;20;3647179;-39
2022/01/25 11:05:13;;;;;;;;;69.00;47.33;;;;;-0.11;81.94;100941.25;6315013;20;3641983;-40
2022/01/25 11:08:20;;;;;;;;;94.00;66.00;;;;;0.03;81.85;100941.25;6317298;20;3660656;-39
2022/01/25 11:11:12;;;;;;;;;92.67;65.00;;;;;0.14;82.09;100937.78;6316488;20;3666861;-38
2022/01/25 11:17:12;;;;;;;;;85.00;64.00;;;;;0.14;81.62;100929.84;6316337;20;3647056;-39
2022/01/25 11:20:05;;;;;;;;;86.67;62.67;;;;;0.16;81.06;100928.09;6316639;20;3661665;-40
2022/01/25 11:22:55;;;;;;;;;87.33;64.33;;;;;0.35;80.96;100929.00;6313519;20;2899327;-39
2022/01/25 11:25:50;;;;;;;;;94.00;67.00;;;;;0.45;80.47;100921.97;6315333;20;2779567;-40
2022/01/25 11:28:42;;;;;;;;;73.00;56.50;;;;;0.37;80.61;100916.66;6283914;20;2871161;-39
2022/01/25 11:31:32;;;;;;;;;84.33;64.00;;;;;0.59;80.78;100909.59;6285389;20;3639821;-40
2022/01/25 11:34:26;;;;;;;;;69.50;56.50;;;;;0.56;79.82;100917.53;6315232;20;2871048;-39
2022/01/25 11:37:16;;;;;;;;;81.33;64.00;;;;;0.55;79.92;100917.53;6283728;20;3630430;-38
2022/01/25 11:40:30;;;;;;;;;78.67;58.00;;;;;0.96;79.21;100913.94;6315194;20;2886800;-38
2022/01/25 11:43:20;;;;;;;;;85.67;61.00;;;;;0.73;79.85;100916.63;6315521;20;3656465;-38
2022/01/25 11:46:09;;;;;;;;;77.50;58.50;;;;;0.50;80.13;100914.91;6316008;20;2872125;-39
2022/01/25 11:49:14;;;;;;;;;81.00;54.33;;;;;0.74;79.42;100907.81;6285403;20;2886066;-39
2022/01/25 11:52:16;;;;;;;;;84.00;59.00;;;;;0.98;79.64;100902.47;6315464;20;3651433;-39
2022/01/25 11:55:25;;;;;;;;;82.67;64.67;;;;;0.78;79.69;100899.00;6311189;20;2872238;-38
2022/01/25 11:58:29;;;;;;;;;83.00;62.33;;;;;0.85;79.16;100896.34;6310482;20;3650288;-38
2022/01/25 12:01:24;;;;;;;;;77.67;62.00;;;;;0.84;78.89;100891.03;6309979;20;3625212;-38
2022/01/25 12:04:17;;;;;;;;;74.33;57.33;;;;;0.92;79.29;100881.31;6311870;20;2861754;-40
2022/01/25 12:07:24;;;;;;;;;73.00;57.00;;;;;0.89;78.74;100878.69;6310146;20;2866953;-38
2022/01/25 12:10:40;;;;;;;;;73.00;53.67;;;;;0.81;79.06;100876.06;6280806;20;2879410;-39
2022/01/25 12:13:33;;;;;;;;;82.00;61.33;;;;;0.95;78.97;100864.56;6313597;20;2892050;-39
2022/01/25 12:16:27;;;;;;;;;78.33;58.33;;;;;0.98;79.35;100862.81;6316488;20;2891985;-39
2022/01/25 12:19:52;;;;;;;;;77.00;57.67;;;;;1.21;79.11;100867.13;6316819;20;2883675;-38
2022/01/25 12:22:46;;;;;;;;;68.50;53.50;;;;;1.23;78.68;100860.94;6312777;20;2859704;-38
2022/01/25 12:25:57;;;;;;;;;74.33;54.00;;;;;1.24;77.84;100864.50;6284115;20;3626311;-39
2022/01/25 12:29:31;;;;;;;;;68.50;55.00;;;;;1.20;78.79;100855.66;6317200;20;2864839;-39
2022/01/25 12:32:35;;;;;;;;;70.00;56.50;;;;;1.00;78.94;100850.47;6280065;20;2500267;-40
2022/01/25 12:36:05;;;;;;;;;72.00;57.50;;;;;1.40;78.05;100842.34;6286035;20;2876290;-39
2022/01/25 12:38:55;;;;;;;;;72.00;54.67;;;;;1.47;77.74;100846.69;6282570;20;3635678;-39
2022/01/25 12:41:45;;;;;;;;;78.33;57.67;;;;;1.69;76.63;100843.94;6314583;20;3645470;-41
2022/01/25 12:44:14;;;;;;;;;77.00;57.00;;;;;1.65;77.03;100832.47;6317016;20;2845112;-40
2022/01/25 12:46:44;;;;;;;;;76.33;56.00;;;;;1.44;77.76;100832.63;6287252;20;2887800;-39
2022/01/25 12:49:17;;;;;;;;;77.00;58.75;;;;;1.84;76.46;100833.22;6321574;20;4384611;-40
2022/01/25 12:51:51;;;;;;;;;78.33;57.00;;;;;1.75;76.19;100818.28;6321793;20;3667947;-40
2022/01/25 12:54:57;;;;;;;;;76.33;57.67;;;;;1.47;77.44;100825.53;6320179;20;3635619;-39
2022/01/25 12:57:28;;;;;;;;;77.00;57.67;;;;;1.47;77.68;100817.59;6318469;20;3626333;-42
2022/01/25 12:59:57;;;;;;;;;81.33;62.67;;;;;1.65;77.87;100824.53;6320077;20;3634588;-42
2022/01/25 13:02:29;;;;;;;;;81.00;59.33;;;;;1.70;77.30;100813.94;6320294;20;3637795;-39
2022/01/25 13:04:59;;;;;;;;;85.00;62.33;;;;;1.94;76.21;100813.72;6319499;20;3657554;-39
2022/01/25 13:07:28;;;;;;;;;79.00;58.33;;;;;1.62;77.17;100805.16;6319203;20;3645015;-45
2022/01/25 13:09:58;;;;;;;;;83.50;61.00;;;;;1.57;77.46;100801.66;6321397;20;3493929;-47
2022/01/25 13:12:36;;;;;;;;;82.00;61.00;;;;;1.51;77.88;100798.16;6318117;20;3638738;-46
2022/01/25 13:15:27;;;;;;;;;73.33;57.00;;;;;1.48;77.47;100787.63;6320822;20;2881622;-47
2022/01/25 13:18:14;;;;;;;;;85.33;61.00;;;;;1.46;78.20;100786.72;6320489;20;3653504;-46
2022/01/25 13:20:47;;;;;;;;;92.00;65.33;;;;;1.33;78.20;100786.84;6317883;20;3657728;-47
2022/01/25 13:23:17;;;;;;;;;88.67;64.00;;;;;1.52;78.31;100793.75;6288725;20;3650292;-44
2022/01/25 13:26:07;;;;;;;;;81.00;61.00;;;;;1.32;78.73;100791.25;6320863;20;3641950;-47
2022/01/25 13:30:38;;;;;;;;;81.00;62.33;;;;;1.34;78.52;100789.44;6316282;20;3650262;-43
2022/01/25 13:31:33;;;;;;;;;83.33;62.67;;;;;1.25;79.28;100795.69;6318973;20;3646071;-45
2022/01/25 13:34:02;;;;;;;;;79.00;61.33;;;;;1.29;79.27;100785.94;6320807;20;2881552;-48
2022/01/25 13:36:33;;;;;;;;;96.67;63.33;;;;;1.49;78.87;100776.13;6321046;20;3656647;-45
2022/01/25 13:39:03;;;;;;;;;87.67;63.00;;;;;1.42;78.84;100771.78;6320513;20;3649210;-44